createdAt,value
2018-12-06T00:01:01.665Z,23.83
2018-12-06T00:03:30.195Z,25.33
2018-12-06T00:05:58.819Z,25.57
2018-12-06T00:08:27.364Z,22.90
2018-12-06T00:10:55.817Z,24.43
2018-12-06T00:13:24.416Z,27.33
2018-12-06T00:15:52.883Z,28.10
2018-12-06T00:18:21.295Z,25.23
2018-12-06T00:20:49.853Z,24.90
2018-12-06T00:23:18.346Z,21.20
2018-12-06T00:25:46.858Z,26.67
2018-12-06T00:28:15.350Z,24.43
2018-12-06T00:30:43.888Z,22.47
2018-12-06T00:33:12.318Z,23.67
2018-12-06T00:35:40.739Z,24.57
2018-12-06T00:38:09.215Z,26.30
2018-12-06T00:40:37.776Z,25.77
2018-12-06T00:43:06.298Z,20.87
2018-12-06T00:45:34.847Z,21.80
2018-12-06T00:48:03.277Z,22.23
2018-12-06T00:50:31.878Z,26.90
2018-12-06T00:53:00.607Z,27.80
2018-12-06T00:55:29.067Z,22.97
2018-12-06T00:57:57.594Z,23.93
2018-12-06T01:00:26.061Z,21.57
2018-12-06T01:02:54.522Z,20.93
2018-12-06T01:05:22.971Z,22.80
2018-12-06T01:07:51.396Z,25.67
2018-12-06T01:10:19.839Z,20.03
2018-12-06T01:12:50.295Z,19.90
2018-12-06T01:15:18.807Z,19.77
2018-12-06T01:17:47.265Z,20.70
2018-12-06T01:20:15.774Z,18.93
2018-12-06T01:22:44.340Z,20.50
2018-12-06T01:25:13.431Z,19.57
2018-12-06T01:27:42.036Z,22.60
2018-12-06T01:30:10.690Z,22.93
2018-12-06T01:32:39.178Z,23.63
2018-12-06T01:35:08.043Z,22.20
2018-12-06T01:37:36.598Z,20.47
2018-12-06T01:40:05.266Z,21.20
2018-12-06T01:42:34.324Z,23.37
2018-12-06T01:45:03.395Z,20.03
2018-12-06T01:47:31.898Z,22.43
2018-12-06T01:50:00.395Z,18.40
2018-12-06T01:52:28.836Z,22.40
2018-12-06T01:54:58.229Z,22.70
2018-12-06T01:57:26.757Z,20.73
2018-12-06T01:59:55.260Z,18.23
2018-12-06T02:02:23.699Z,20.47
2018-12-06T02:04:52.307Z,24.00
2018-12-06T02:07:21.137Z,21.93
2018-12-06T02:09:49.639Z,23.07
2018-12-06T02:12:18.271Z,19.40
2018-12-06T02:14:46.711Z,18.17
2018-12-06T02:17:15.201Z,18.10
2018-12-06T02:19:43.722Z,21.13
2018-12-06T02:22:12.563Z,22.63
2018-12-06T02:24:41.050Z,25.83
2018-12-06T02:27:09.480Z,21.30
2018-12-06T02:29:43.100Z,21.83
2018-12-06T02:32:11.665Z,18.20
2018-12-06T02:34:40.090Z,18.43
2018-12-06T02:37:10.120Z,15.13
2018-12-06T02:39:38.563Z,20.43
2018-12-06T02:42:06.997Z,24.03
2018-12-06T02:44:35.782Z,21.80
2018-12-06T02:47:04.304Z,18.73
2018-12-06T02:49:32.966Z,18.63
2018-12-06T02:52:01.417Z,15.67
2018-12-06T02:54:29.884Z,19.90
2018-12-06T02:56:58.319Z,15.50
2018-12-06T02:59:26.893Z,16.33
2018-12-06T03:01:55.402Z,16.00
2018-12-06T03:04:23.962Z,19.80
2018-12-06T03:06:52.455Z,21.80
2018-12-06T03:09:20.986Z,20.20
2018-12-06T03:11:49.439Z,18.30
2018-12-06T03:14:17.919Z,17.40
2018-12-06T03:16:46.388Z,18.40
2018-12-06T03:19:14.927Z,18.37
2018-12-06T03:21:43.428Z,20.37
2018-12-06T03:24:11.976Z,22.57
2018-12-06T03:26:40.669Z,17.87
2018-12-06T03:29:09.119Z,17.23
2018-12-06T03:31:37.637Z,15.47
2018-12-06T03:34:06.127Z,16.93
2018-12-06T03:36:34.647Z,20.27
2018-12-06T03:39:04.858Z,16.77
2018-12-06T03:41:33.805Z,17.37
2018-12-06T03:44:02.216Z,15.87
2018-12-06T03:46:30.662Z,17.83
2018-12-06T03:48:59.119Z,14.67
2018-12-06T03:51:27.594Z,19.60
2018-12-06T03:53:56.115Z,16.03
2018-12-06T03:56:24.586Z,16.03
2018-12-06T03:58:52.993Z,19.63
2018-12-06T04:01:21.419Z,19.27
2018-12-06T04:03:49.839Z,17.43
2018-12-06T04:06:18.255Z,16.40
2018-12-06T04:08:46.691Z,18.77
2018-12-06T04:11:15.213Z,16.93
2018-12-06T04:13:43.685Z,16.20
2018-12-06T04:16:12.110Z,16.13
2018-12-06T04:18:40.555Z,20.23
2018-12-06T04:21:09.020Z,19.53
2018-12-06T04:23:37.442Z,19.03
2018-12-06T04:26:05.905Z,18.93
2018-12-06T04:28:34.338Z,21.90
2018-12-06T04:31:02.791Z,18.00
2018-12-06T04:33:31.272Z,16.13
2018-12-06T04:35:59.920Z,17.43
2018-12-06T04:38:28.607Z,15.97
2018-12-06T04:40:57.011Z,16.10
2018-12-06T04:43:25.451Z,15.77
2018-12-06T04:45:53.919Z,15.50
2018-12-06T04:48:23.927Z,17.83
2018-12-06T04:50:52.428Z,18.73
2018-12-06T04:53:20.892Z,18.43
2018-12-06T04:55:49.311Z,16.57
2018-12-06T04:58:17.929Z,19.73
2018-12-06T05:00:46.480Z,18.70
2018-12-06T05:03:14.899Z,17.10
2018-12-06T05:05:43.381Z,16.07
2018-12-06T05:08:11.857Z,16.97
2018-12-06T05:10:40.311Z,15.30
2018-12-06T05:13:08.855Z,17.77
2018-12-06T05:15:37.357Z,16.60
2018-12-06T05:18:05.807Z,15.13
2018-12-06T05:20:34.351Z,17.70
2018-12-06T05:23:02.805Z,18.43
2018-12-06T05:25:31.294Z,17.80
2018-12-06T05:27:59.839Z,15.80
2018-12-06T05:30:28.514Z,18.90
2018-12-06T05:32:57.035Z,22.10
2018-12-06T05:35:26.115Z,19.47
2018-12-06T05:37:54.561Z,19.03
2018-12-06T05:40:23.027Z,19.03
2018-12-06T05:42:51.520Z,17.30
2018-12-06T05:45:19.965Z,18.63
2018-12-06T05:47:48.544Z,15.53
2018-12-06T05:50:17.009Z,17.40
2018-12-06T05:52:45.514Z,17.60
2018-12-06T05:55:14.000Z,16.47
2018-12-06T05:57:42.426Z,21.90
2018-12-06T06:00:10.942Z,21.27
2018-12-06T06:02:39.376Z,17.43
2018-12-06T06:05:08.123Z,17.93
2018-12-06T06:07:36.534Z,16.40
2018-12-06T06:10:05.578Z,20.77
2018-12-06T06:12:33.998Z,16.33
2018-12-06T06:15:04.568Z,16.40
2018-12-06T06:17:33.035Z,18.53
2018-12-06T06:20:01.500Z,18.43
2018-12-06T06:22:30.111Z,20.17
2018-12-06T06:24:58.679Z,22.53
2018-12-06T06:27:27.146Z,21.57
2018-12-06T06:29:55.624Z,20.10
2018-12-06T06:32:24.175Z,18.57
2018-12-06T06:34:52.776Z,23.80
2018-12-06T06:37:21.314Z,15.90
2018-12-06T06:39:49.731Z,22.13
2018-12-06T06:42:18.207Z,22.60
2018-12-06T06:44:46.791Z,20.83
2018-12-06T06:47:15.298Z,25.43
2018-12-06T06:49:43.825Z,20.10
2018-12-06T06:52:12.270Z,18.30
2018-12-06T06:54:40.695Z,25.20
2018-12-06T06:57:09.140Z,17.87
2018-12-06T06:59:37.547Z,19.20
2018-12-06T07:02:06.425Z,24.50
2018-12-06T07:04:34.921Z,17.37
2018-12-06T07:07:03.636Z,19.67
2018-12-06T07:09:32.061Z,18.53
2018-12-06T07:12:00.672Z,18.63
2018-12-06T07:14:29.096Z,18.10
2018-12-06T07:16:57.607Z,19.27
2018-12-06T07:19:26.083Z,18.10
2018-12-06T07:21:54.514Z,16.07
2018-12-06T07:24:23.049Z,20.77
2018-12-06T07:26:51.495Z,20.00
2018-12-06T07:29:20.123Z,19.77
2018-12-06T07:31:48.602Z,20.07
2018-12-06T07:34:17.048Z,20.63
2018-12-06T07:36:45.503Z,18.43
2018-12-06T07:39:13.956Z,19.03
2018-12-06T07:41:42.515Z,19.53
2018-12-06T07:44:10.997Z,20.10
2018-12-06T07:46:39.485Z,18.40
2018-12-06T07:49:08.245Z,23.43
2018-12-06T07:51:36.691Z,21.03
2018-12-06T07:54:05.497Z,18.87
2018-12-06T07:56:33.952Z,23.13
2018-12-06T07:59:02.511Z,19.03
2018-12-06T08:01:30.999Z,18.67
2018-12-06T08:03:59.442Z,23.13
2018-12-06T08:06:27.905Z,19.93
2018-12-06T08:08:56.353Z,19.50
2018-12-06T08:11:24.906Z,22.30
2018-12-06T08:13:53.481Z,22.97
2018-12-06T08:16:21.914Z,16.20
2018-12-06T08:18:50.500Z,21.13
2018-12-06T08:21:19.066Z,18.47
2018-12-06T08:23:47.513Z,17.73
2018-12-06T08:26:16.070Z,25.10
2018-12-06T08:28:44.598Z,20.10
2018-12-06T08:31:13.215Z,16.80
2018-12-06T08:33:41.733Z,17.93
2018-12-06T08:36:10.422Z,23.00
2018-12-06T08:38:39.068Z,21.87
2018-12-06T08:41:07.510Z,21.60
2018-12-06T08:43:35.977Z,23.13
2018-12-06T08:46:04.674Z,24.27
2018-12-06T08:48:33.163Z,23.77
2018-12-06T08:51:01.716Z,19.60
2018-12-06T08:53:30.171Z,24.27
2018-12-06T08:55:58.793Z,25.43
2018-12-06T08:58:27.253Z,27.40
2018-12-06T09:00:56.002Z,28.50
2018-12-06T09:03:24.504Z,24.33
2018-12-06T09:05:52.969Z,14.50
2018-12-06T09:08:21.566Z,31.13
2018-12-06T09:10:51.726Z,26.63
2018-12-06T09:13:20.512Z,23.17
2018-12-06T09:15:48.964Z,28.13
2018-12-06T09:18:17.495Z,21.50
2018-12-06T09:20:45.963Z,16.23
2018-12-06T09:23:14.424Z,20.10
2018-12-06T09:25:42.866Z,20.13
2018-12-06T09:28:11.307Z,21.10
2018-12-06T09:30:39.739Z,19.27
2018-12-06T09:33:08.315Z,19.47
2018-12-06T09:35:36.755Z,18.20
2018-12-06T09:38:05.328Z,22.07
2018-12-06T09:40:33.754Z,20.13
2018-12-06T09:43:02.197Z,17.23
2018-12-06T09:45:30.620Z,15.53
2018-12-06T09:47:59.060Z,14.17
2018-12-06T09:50:27.513Z,15.77
2018-12-06T09:52:55.946Z,14.07
2018-12-06T10:09:00.144Z,11.30
2018-12-06T10:11:28.568Z,15.40
2018-12-06T10:13:57.074Z,11.93
2018-12-06T10:16:25.496Z,13.10
2018-12-06T10:18:54.167Z,12.07
2018-12-06T10:21:22.761Z,14.03
2018-12-06T10:23:51.221Z,17.67
2018-12-06T10:26:19.794Z,10.57
2018-12-06T10:28:48.238Z,15.67
2018-12-06T10:31:16.699Z,12.70
2018-12-06T10:33:45.151Z,17.90
2018-12-06T10:36:13.583Z,16.93
2018-12-06T10:38:41.996Z,13.00
2018-12-06T10:41:10.443Z,11.70
2018-12-06T10:43:39.008Z,13.43
2018-12-06T10:46:07.489Z,13.00
2018-12-06T10:48:36.019Z,13.67
2018-12-06T10:51:15.846Z,14.20
2018-12-06T10:53:44.553Z,12.83
2018-12-06T10:56:13.115Z,11.47
2018-12-06T10:58:41.771Z,17.10
2018-12-06T11:01:12.234Z,14.93
2018-12-06T11:03:46.050Z,19.23
2018-12-06T11:06:14.499Z,17.30
2018-12-06T11:08:42.916Z,17.27
2018-12-06T11:11:11.341Z,13.87
2018-12-06T11:13:39.886Z,15.60
2018-12-06T11:16:08.338Z,18.83
2018-12-06T11:18:36.766Z,16.10
2018-12-06T11:21:05.213Z,14.63
2018-12-06T11:23:33.641Z,20.07
2018-12-06T11:26:02.360Z,15.20
2018-12-06T11:28:30.822Z,15.47
2018-12-06T11:30:59.495Z,16.07
2018-12-06T11:33:28.724Z,17.20
2018-12-06T11:35:57.430Z,16.57
2018-12-06T11:38:25.958Z,18.47
2018-12-06T11:40:54.410Z,21.00
2018-12-06T11:43:22.824Z,14.90
2018-12-06T11:45:52.630Z,12.10
2018-12-06T11:48:26.887Z,14.20
2018-12-06T11:50:52.692Z,16.07
2018-12-06T11:53:21.151Z,10.60
2018-12-06T11:55:49.596Z,11.83
2018-12-06T11:58:18.170Z,13.97
2018-12-06T12:00:46.574Z,9.57
2018-12-06T12:03:15.490Z,9.73
2018-12-06T12:05:44.202Z,15.57
2018-12-06T12:08:12.651Z,16.73
2018-12-06T12:10:41.088Z,11.20
2018-12-06T12:13:09.524Z,12.43
2018-12-06T12:15:37.945Z,12.90
2018-12-06T12:18:06.404Z,10.87
2018-12-06T12:20:34.867Z,12.70
2018-12-06T12:23:03.638Z,17.63
2018-12-06T12:25:32.134Z,12.90
2018-12-06T12:28:00.631Z,15.93
2018-12-06T12:30:29.054Z,12.87
2018-12-06T12:32:57.537Z,18.70
2018-12-06T12:35:26.027Z,17.63
2018-12-06T12:37:54.484Z,16.57
2018-12-06T12:40:23.027Z,11.90
2018-12-06T12:42:51.537Z,9.17
2018-12-06T12:45:20.007Z,15.23
2018-12-06T12:47:48.516Z,12.67
2018-12-06T12:50:16.938Z,11.13
2018-12-06T12:53:46.141Z,16.43
2018-12-06T12:56:14.587Z,13.80
2018-12-06T12:58:43.022Z,13.33
2018-12-06T13:01:11.463Z,10.53
2018-12-06T13:03:39.868Z,14.97
2018-12-06T13:06:08.339Z,13.23
2018-12-06T13:08:36.780Z,14.57
2018-12-06T13:11:05.914Z,17.47
2018-12-06T13:13:34.766Z,11.03
2018-12-06T13:16:03.210Z,12.47
2018-12-06T13:18:31.992Z,12.17
2018-12-06T13:21:00.450Z,16.50
2018-12-06T13:23:28.896Z,12.43
2018-12-06T13:25:57.572Z,15.90
2018-12-06T13:28:26.035Z,13.57
2018-12-06T13:30:54.602Z,13.70
2018-12-06T13:33:23.076Z,15.50
2018-12-06T13:35:51.555Z,12.40
2018-12-06T13:38:20.080Z,13.23
2018-12-06T13:40:48.547Z,10.43
2018-12-06T13:43:16.980Z,18.20
2018-12-06T13:45:45.432Z,15.83
2018-12-06T13:48:13.859Z,11.77
2018-12-06T13:50:42.328Z,13.60
2018-12-06T13:53:10.769Z,17.57
2018-12-06T13:55:39.226Z,14.20
2018-12-06T13:58:07.875Z,14.70
2018-12-06T14:00:36.606Z,11.63
2018-12-06T14:03:05.317Z,10.03
2018-12-06T14:05:33.784Z,10.73
2018-12-06T14:08:02.271Z,13.10
2018-12-06T14:10:30.748Z,15.93
2018-12-06T14:12:59.314Z,12.00
2018-12-06T14:15:27.877Z,11.07
2018-12-06T14:17:56.598Z,14.37
2018-12-06T14:20:25.067Z,15.67
2018-12-06T14:22:53.556Z,16.73
2018-12-06T14:25:22.770Z,11.30
2018-12-06T14:27:51.305Z,14.03
2018-12-06T14:30:19.749Z,14.33
2018-12-06T14:32:48.200Z,13.63
2018-12-06T14:35:16.634Z,19.57
2018-12-06T14:37:45.120Z,10.03
2018-12-06T14:40:13.626Z,13.40
2018-12-06T14:42:42.051Z,13.17
2018-12-06T14:45:10.622Z,20.90
2018-12-06T14:47:39.203Z,13.93
2018-12-06T14:50:07.987Z,18.07
2018-12-06T14:52:37.056Z,11.20
2018-12-06T14:55:05.970Z,14.03
2018-12-06T14:57:34.548Z,13.17
2018-12-06T15:00:03.262Z,11.20
2018-12-06T15:02:31.757Z,14.43
2018-12-06T15:05:07.393Z,10.23
2018-12-06T15:07:36.437Z,10.37
2018-12-06T15:10:06.447Z,13.80
2018-12-06T15:12:37.670Z,15.07
2018-12-06T15:15:06.529Z,11.77
2018-12-06T15:17:35.137Z,12.77
2018-12-06T15:20:04.114Z,13.00
2018-12-06T15:22:32.634Z,14.37
2018-12-06T15:25:01.372Z,8.83
2018-12-06T15:27:30.024Z,17.20
2018-12-06T15:29:58.691Z,8.70
2018-12-06T15:32:27.193Z,12.47
2018-12-06T15:34:55.811Z,9.70
2018-12-06T15:37:24.320Z,13.47
2018-12-06T15:39:52.827Z,10.17
2018-12-06T15:42:21.287Z,11.37
2018-12-06T15:44:49.741Z,10.07
2018-12-06T15:47:18.238Z,12.37
2018-12-06T15:49:47.617Z,8.17
2018-12-06T15:52:16.592Z,8.77
2018-12-06T15:54:45.189Z,12.13
2018-12-06T15:57:13.620Z,10.40
2018-12-06T15:59:42.122Z,15.73
2018-12-06T16:02:10.572Z,13.07
2018-12-06T16:04:39.052Z,14.43
2018-12-06T16:07:07.737Z,7.70
2018-12-06T16:09:37.201Z,11.53
2018-12-06T16:12:05.754Z,7.73
2018-12-06T16:14:34.314Z,7.37
2018-12-06T16:17:02.762Z,10.03
2018-12-06T16:19:31.336Z,12.93
2018-12-06T16:21:59.803Z,14.40
2018-12-06T16:24:28.275Z,10.23
2018-12-06T16:26:56.761Z,11.20
2018-12-06T16:29:25.245Z,12.23
2018-12-06T16:31:53.821Z,13.20
2018-12-06T16:34:22.548Z,7.67
2018-12-06T16:36:51.010Z,7.13
2018-12-06T16:39:19.500Z,9.27
2018-12-06T16:41:47.969Z,7.20
2018-12-06T16:44:16.514Z,8.60
2018-12-06T16:46:45.027Z,7.23
2018-12-06T16:49:14.677Z,7.97
2018-12-06T16:51:43.142Z,8.63
2018-12-06T16:54:11.741Z,8.83
2018-12-06T16:56:40.194Z,9.60
2018-12-06T16:59:08.690Z,13.10
2018-12-06T17:01:37.409Z,13.70
2018-12-06T17:04:05.927Z,6.83
2018-12-06T17:06:34.526Z,11.50
2018-12-06T17:09:03.139Z,12.60
2018-12-06T17:11:31.735Z,8.43
2018-12-06T17:14:00.295Z,6.80
2018-12-06T17:16:29.039Z,9.33
2018-12-06T17:49:01.017Z,8.43
2018-12-06T17:51:32.285Z,7.33
2018-12-06T17:54:02.257Z,5.93
2018-12-06T17:56:31.796Z,8.83
2018-12-06T17:59:01.044Z,6.90
2018-12-06T18:01:31.089Z,6.77
2018-12-06T18:04:00.145Z,6.07
2018-12-06T18:06:29.925Z,7.87
2018-12-06T18:09:00.979Z,7.33
2018-12-06T18:11:31.228Z,6.20
2018-12-06T18:14:00.442Z,7.53
2018-12-06T18:16:29.404Z,5.87
2018-12-06T18:18:58.597Z,7.07
2018-12-06T18:21:27.533Z,9.50
2018-12-06T18:23:56.675Z,6.23
2018-12-06T18:26:29.554Z,6.47
2018-12-06T18:28:58.564Z,10.63
2018-12-06T18:31:27.481Z,8.53
2018-12-06T18:33:56.393Z,14.03
2018-12-06T18:36:25.284Z,9.80
2018-12-06T18:38:54.197Z,8.37
2018-12-06T18:41:23.065Z,9.33
2018-12-06T18:43:52.211Z,8.97
2018-12-06T18:46:21.814Z,10.73
2018-12-06T18:48:50.761Z,11.70
2018-12-06T18:51:20.078Z,12.67
2018-12-06T18:53:51.830Z,8.83
2018-12-06T18:56:25.174Z,11.93
2018-12-06T18:58:55.046Z,8.20
2018-12-06T19:01:24.116Z,8.13
2018-12-06T19:03:53.278Z,11.83
2018-12-06T19:06:22.122Z,14.13
2018-12-06T19:08:51.581Z,8.63
2018-12-06T19:11:21.064Z,15.50
2018-12-06T19:13:51.322Z,10.10
2018-12-06T19:16:20.926Z,14.70
2018-12-06T19:18:51.835Z,15.43
2018-12-06T19:21:20.779Z,7.47
2018-12-06T19:23:49.791Z,6.63
2018-12-06T19:26:19.088Z,12.80
2018-12-06T19:28:48.783Z,8.60
2018-12-06T19:31:17.881Z,12.73
2018-12-06T19:33:48.157Z,8.50
2018-12-06T19:36:17.298Z,12.73
2018-12-06T19:38:49.637Z,12.13
2018-12-06T19:41:18.629Z,7.33
2018-12-06T19:43:48.717Z,7.83
2018-12-06T19:46:17.699Z,8.57
2018-12-06T19:48:46.971Z,4.90
2018-12-06T19:51:16.062Z,9.90
2018-12-06T19:53:45.042Z,7.17
2018-12-06T19:56:13.993Z,8.07
2018-12-06T19:58:42.931Z,9.37
2018-12-06T20:01:11.724Z,9.47
2018-12-06T20:03:40.634Z,17.53
2018-12-06T20:06:09.770Z,8.00
2018-12-06T20:08:38.643Z,9.03
2018-12-06T20:11:08.282Z,6.10
2018-12-06T20:13:37.301Z,8.87
2018-12-06T20:16:06.228Z,9.10
2018-12-06T20:18:36.679Z,8.93
2018-12-06T20:21:05.531Z,13.37
2018-12-06T20:23:34.308Z,8.57
2018-12-06T20:26:03.332Z,8.77
2018-12-06T20:28:32.933Z,7.70
2018-12-06T20:31:01.850Z,8.00
2018-12-06T20:33:30.679Z,11.13
2018-12-06T20:35:59.580Z,9.17
2018-12-06T20:38:28.410Z,8.67
2018-12-06T20:40:57.212Z,7.43
2018-12-06T20:43:26.147Z,7.23
2018-12-06T20:45:54.989Z,7.93
2018-12-06T20:48:23.919Z,7.63
2018-12-06T20:50:52.843Z,7.33
2018-12-06T20:53:21.860Z,6.83
2018-12-06T20:55:51.687Z,9.57
2018-12-06T20:58:20.698Z,4.77
2018-12-06T21:00:51.235Z,4.43
2018-12-06T21:03:21.258Z,4.87
2018-12-06T21:05:49.864Z,3.77
2018-12-06T21:08:18.449Z,4.57
2018-12-06T21:10:47.062Z,3.57
2018-12-06T21:13:15.602Z,3.13
2018-12-06T21:15:44.126Z,2.43
2018-12-06T21:18:12.634Z,3.83
2018-12-06T21:20:41.304Z,3.97
2018-12-06T21:23:09.938Z,9.97
2018-12-06T21:25:38.529Z,4.53
2018-12-06T21:28:07.123Z,2.90
2018-12-06T21:30:35.659Z,7.83
2018-12-06T21:33:04.874Z,4.20
2018-12-06T21:35:33.348Z,4.70
2018-12-06T21:38:01.949Z,5.80
2018-12-06T21:40:30.559Z,5.57
2018-12-06T21:42:59.014Z,3.73
2018-12-06T21:45:27.532Z,5.10
2018-12-06T21:47:55.979Z,3.47
2018-12-06T21:50:24.515Z,2.20
2018-12-06T21:52:52.983Z,4.63
2018-12-06T21:55:21.426Z,3.10
2018-12-06T21:57:50.833Z,1.90
2018-12-06T22:00:19.305Z,2.67
2018-12-06T22:02:47.744Z,3.37
2018-12-06T22:05:16.460Z,2.47
2018-12-06T22:07:44.898Z,2.90
2018-12-06T22:10:13.381Z,2.10
2018-12-06T22:12:41.849Z,4.77
2018-12-06T22:15:10.423Z,3.53
2018-12-06T22:17:38.955Z,2.77
2018-12-06T22:22:47.663Z,5.10
2018-12-06T22:25:21.577Z,2.90
2018-12-06T22:27:50.144Z,4.60
2018-12-06T22:30:18.655Z,2.63
2018-12-06T22:32:47.087Z,3.00
2018-12-06T22:35:15.542Z,4.60
2018-12-06T22:37:43.988Z,6.33
2018-12-06T22:40:12.432Z,4.07
2018-12-06T22:42:40.895Z,4.30
2018-12-06T22:45:20.676Z,4.40
2018-12-06T22:47:49.102Z,3.73
2018-12-06T22:50:17.550Z,2.97
2018-12-06T22:52:46.023Z,2.50
2018-12-06T22:55:14.557Z,4.13
2018-12-06T22:57:43.128Z,3.07
2018-12-06T23:00:14.574Z,3.17
2018-12-06T23:02:43.147Z,3.73
2018-12-06T23:05:11.587Z,3.07
2018-12-06T23:07:40.030Z,3.30
2018-12-06T23:10:08.767Z,5.23
2018-12-06T23:12:37.248Z,4.77
2018-12-06T23:15:29.085Z,4.20
2018-12-06T23:17:57.732Z,4.50
2018-12-06T23:20:26.386Z,6.27
2018-12-06T23:22:54.829Z,4.50
2018-12-06T23:25:30.975Z,3.83
2018-12-06T23:28:30.113Z,6.77
2018-12-06T23:37:44.690Z,6.20
2018-12-06T23:40:13.236Z,3.93
2018-12-06T23:42:41.759Z,5.80
2018-12-06T23:45:10.403Z,3.60
2018-12-06T23:47:38.863Z,4.67
2018-12-06T23:50:07.346Z,5.03
2018-12-06T23:52:35.851Z,3.57
2018-12-06T23:55:04.447Z,3.83
2018-12-06T23:57:32.919Z,4.43
